Portada
METAR-TAF:

METAR-TAF

Aeroports :

Francis S. Gabreski Airport

Westhampton Beach, Nova York, Estats Units d'Amèrica

latitud: 40-51-03N, longitud: 072-37-14W, altitud: 20 m

Observació

L'informe es va fer fa 17 minuts, a les 13:37 UTC
Vent 21 kt del Nord amb ràfegues de 30 kt
Temperatura 3°C
Humitat 93%
Pressió 1009 hPa
Visibilitat: 6.4 km
Cel ennuvolat a una alçada de 1100 ft
Cel ennuvolat a una alçada de 1900 ft
Cel cobert a una alçada de 2800 ft
pluja, boirina

METAR: KFOK 301337Z 01021G30KT 4SM RA BR BKN011 BKN019 OVC028 03/02 A2979 RMK AO2 PK WND 02035/1322 PRESRR P0008 T00280017

Hora: 09:54 (13:54 UTC)


TAF: manca

Observacions i pronòstics meteorològics de més de 4000 aeroports (METAR i TAF).

Les estacions disponibles són els punts grocs i vermells al mapa.

Posi el ratolí al punt desitjat per veure el nom de l'estació.

Feu clic per veure les observacions i els pronòstics meteorològics.

Per canviar el mapa: feu clic els botons verds amb una creu de color negre per apropar; al botó verd amb un guió per allunyar la imatge; o en les fletxes verdes per a mapes adjacents.


METAR-TAF: